sensor_id;sensor_type;location;lat;lon;timestamp;P1;durP1;ratioP1;P2;durP2;ratioP2
23614;SDS011;11985;49.404;7.734;2022-08-03T00:01:59;5.50;;;2.40;;
23614;SDS011;11985;49.404;7.734;2022-08-03T00:04:03;4.18;;;2.50;;
23614;SDS011;11985;49.404;7.734;2022-08-03T00:06:07;2.50;;;2.30;;
23614;SDS011;11985;49.404;7.734;2022-08-03T00:08:10;2.78;;;2.47;;
23614;SDS011;11985;49.404;7.734;2022-08-03T00:10:12;2.88;;;2.42;;
23614;SDS011;11985;49.404;7.734;2022-08-03T00:12:15;3.30;;;2.70;;
23614;SDS011;11985;49.404;7.734;2022-08-03T00:14:17;2.83;;;2.30;;
23614;SDS011;11985;49.404;7.734;2022-08-03T00:16:19;3.85;;;2.65;;
23614;SDS011;11985;49.404;7.734;2022-08-03T00:18:21;5.28;;;2.80;;
23614;SDS011;11985;49.404;7.734;2022-08-03T00:20:22;3.00;;;2.70;;
23614;SDS011;11985;49.404;7.734;2022-08-03T00:22:26;3.75;;;2.60;;
23614;SDS011;11985;49.404;7.734;2022-08-03T00:24:27;3.65;;;2.28;;
23614;SDS011;11985;49.404;7.734;2022-08-03T00:26:35;5.40;;;2.72;;
23614;SDS011;11985;49.404;7.734;2022-08-03T00:28:37;3.65;;;2.65;;
23614;SDS011;11985;49.404;7.734;2022-08-03T00:30:40;18.48;;;3.67;;
23614;SDS011;11985;49.404;7.734;2022-08-03T00:32:44;2.72;;;2.42;;
23614;SDS011;11985;49.404;7.734;2022-08-03T00:34:46;6.38;;;2.70;;
23614;SDS011;11985;49.404;7.734;2022-08-03T00:36:48;2.97;;;2.67;;
23614;SDS011;11985;49.404;7.734;2022-08-03T00:38:51;4.47;;;2.80;;
23614;SDS011;11985;49.404;7.734;2022-08-03T00:40:52;3.88;;;2.90;;
23614;SDS011;11985;49.404;7.734;2022-08-03T00:42:55;3.30;;;2.70;;
23614;SDS011;11985;49.404;7.734;2022-08-03T00:44:58;3.05;;;2.47;;
23614;SDS011;11985;49.404;7.734;2022-08-03T00:46:59;3.22;;;2.88;;
23614;SDS011;11985;49.404;7.734;2022-08-03T00:49:01;3.15;;;2.80;;
23614;SDS011;11985;49.404;7.734;2022-08-03T00:51:02;3.15;;;2.70;;
23614;SDS011;11985;49.404;7.734;2022-08-03T00:53:06;3.28;;;2.75;;
23614;SDS011;11985;49.404;7.734;2022-08-03T00:55:10;3.22;;;2.67;;
23614;SDS011;11985;49.404;7.734;2022-08-03T00:57:12;4.43;;;3.20;;
23614;SDS011;11985;49.404;7.734;2022-08-03T00:59:13;3.22;;;2.70;;
23614;SDS011;11985;49.404;7.734;2022-08-03T01:01:16;3.38;;;2.65;;
23614;SDS011;11985;49.404;7.734;2022-08-03T01:03:18;3.25;;;2.53;;
23614;SDS011;11985;49.404;7.734;2022-08-03T01:07:24;3.30;;;2.75;;
23614;SDS011;11985;49.404;7.734;2022-08-03T01:11:42;2.92;;;2.50;;
23614;SDS011;11985;49.404;7.734;2022-08-03T01:13:52;3.47;;;2.80;;
23614;SDS011;11985;49.404;7.734;2022-08-03T01:16:00;3.05;;;2.75;;
23614;SDS011;11985;49.404;7.734;2022-08-03T01:18:07;3.17;;;2.40;;
23614;SDS011;11985;49.404;7.734;2022-08-03T01:20:18;3.10;;;2.58;;
23614;SDS011;11985;49.404;7.734;2022-08-03T01:22:29;10.77;;;3.10;;
23614;SDS011;11985;49.404;7.734;2022-08-03T01:24:59;3.22;;;2.75;;
23614;SDS011;11985;49.404;7.734;2022-08-03T01:27:08;5.60;;;2.90;;
23614;SDS011;11985;49.404;7.734;2022-08-03T01:31:51;3.08;;;2.78;;
23614;SDS011;11985;49.404;7.734;2022-08-03T01:33:58;3.85;;;2.85;;
23614;SDS011;11985;49.404;7.734;2022-08-03T01:36:03;3.28;;;2.80;;
23614;SDS011;11985;49.404;7.734;2022-08-03T01:38:09;5.18;;;3.08;;
23614;SDS011;11985;49.404;7.734;2022-08-03T01:40:13;4.82;;;2.92;;
23614;SDS011;11985;49.404;7.734;2022-08-03T01:42:16;5.57;;;2.88;;
23614;SDS011;11985;49.404;7.734;2022-08-03T01:44:19;3.20;;;2.90;;
23614;SDS011;11985;49.404;7.734;2022-08-03T01:46:25;5.03;;;2.95;;
23614;SDS011;11985;49.404;7.734;2022-08-03T01:48:28;3.63;;;2.97;;
23614;SDS011;11985;49.404;7.734;2022-08-03T01:50:31;4.57;;;2.63;;
23614;SDS011;11985;49.404;7.734;2022-08-03T01:52:34;2.92;;;2.70;;
23614;SDS011;11985;49.404;7.734;2022-08-03T01:54:40;3.35;;;3.05;;
23614;SDS011;11985;49.404;7.734;2022-08-03T01:56:44;2.85;;;2.63;;
23614;SDS011;11985;49.404;7.734;2022-08-03T01:58:47;3.50;;;2.90;;
23614;SDS011;11985;49.404;7.734;2022-08-03T02:00:51;3.78;;;2.92;;
23614;SDS011;11985;49.404;7.734;2022-08-03T02:02:56;3.22;;;2.92;;
23614;SDS011;11985;49.404;7.734;2022-08-03T02:04:59;3.63;;;2.72;;
23614;SDS011;11985;49.404;7.734;2022-08-03T02:07:01;3.85;;;3.08;;
23614;SDS011;11985;49.404;7.734;2022-08-03T02:09:04;2.78;;;2.53;;
23614;SDS011;11985;49.404;7.734;2022-08-03T02:11:06;3.55;;;2.92;;
23614;SDS011;11985;49.404;7.734;2022-08-03T02:15:10;4.47;;;3.17;;
23614;SDS011;11985;49.404;7.734;2022-08-03T02:17:12;3.70;;;3.10;;
23614;SDS011;11985;49.404;7.734;2022-08-03T02:19:16;3.40;;;3.00;;
23614;SDS011;11985;49.404;7.734;2022-08-03T02:21:19;3.78;;;3.33;;
23614;SDS011;11985;49.404;7.734;2022-08-03T02:23:23;5.07;;;3.20;;
23614;SDS011;11985;49.404;7.734;2022-08-03T02:25:24;4.68;;;3.45;;
23614;SDS011;11985;49.404;7.734;2022-08-03T02:29:31;3.75;;;3.15;;
23614;SDS011;11985;49.404;7.734;2022-08-03T02:31:34;3.75;;;3.35;;
23614;SDS011;11985;49.404;7.734;2022-08-03T02:33:38;3.80;;;3.40;;
23614;SDS011;11985;49.404;7.734;2022-08-03T02:35:44;3.20;;;2.90;;
23614;SDS011;11985;49.404;7.734;2022-08-03T02:37:50;4.07;;;3.30;;
23614;SDS011;11985;49.404;7.734;2022-08-03T02:39:53;3.70;;;3.40;;
23614;SDS011;11985;49.404;7.734;2022-08-03T02:42:01;4.82;;;3.35;;
23614;SDS011;11985;49.404;7.734;2022-08-03T02:44:06;3.70;;;3.20;;
23614;SDS011;11985;49.404;7.734;2022-08-03T02:46:09;4.70;;;3.03;;
23614;SDS011;11985;49.404;7.734;2022-08-03T02:48:14;4.00;;;3.10;;
23614;SDS011;11985;49.404;7.734;2022-08-03T02:50:18;4.05;;;3.05;;
23614;SDS011;11985;49.404;7.734;2022-08-03T02:52:24;3.47;;;3.03;;
23614;SDS011;11985;49.404;7.734;2022-08-03T02:54:28;4.32;;;3.08;;
23614;SDS011;11985;49.404;7.734;2022-08-03T02:56:31;4.22;;;3.13;;
23614;SDS011;11985;49.404;7.734;2022-08-03T02:58:34;3.63;;;3.25;;
23614;SDS011;11985;49.404;7.734;2022-08-03T03:00:38;3.83;;;3.40;;
23614;SDS011;11985;49.404;7.734;2022-08-03T03:02:41;5.32;;;2.92;;
23614;SDS011;11985;49.404;7.734;2022-08-03T03:04:44;3.83;;;3.40;;
23614;SDS011;11985;49.404;7.734;2022-08-03T03:06:46;3.97;;;3.10;;
23614;SDS011;11985;49.404;7.734;2022-08-03T03:08:51;4.47;;;3.05;;
23614;SDS011;11985;49.404;7.734;2022-08-03T03:10:53;3.78;;;3.00;;
23614;SDS011;11985;49.404;7.734;2022-08-03T03:12:56;5.30;;;3.47;;
23614;SDS011;11985;49.404;7.734;2022-08-03T03:14:58;5.35;;;3.17;;
23614;SDS011;11985;49.404;7.734;2022-08-03T03:17:00;4.50;;;3.00;;
23614;SDS011;11985;49.404;7.734;2022-08-03T03:19:02;4.38;;;3.40;;
23614;SDS011;11985;49.404;7.734;2022-08-03T03:21:04;3.58;;;3.28;;
23614;SDS011;11985;49.404;7.734;2022-08-03T03:23:08;4.57;;;3.28;;
23614;SDS011;11985;49.404;7.734;2022-08-03T03:25:11;3.95;;;3.50;;
23614;SDS011;11985;49.404;7.734;2022-08-03T03:27:13;5.20;;;3.42;;
23614;SDS011;11985;49.404;7.734;2022-08-03T03:29:16;3.80;;;3.33;;
23614;SDS011;11985;49.404;7.734;2022-08-03T03:31:19;5.10;;;3.22;;
23614;SDS011;11985;49.404;7.734;2022-08-03T03:33:23;5.38;;;3.50;;
23614;SDS011;11985;49.404;7.734;2022-08-03T03:35:25;3.65;;;3.30;;
23614;SDS011;11985;49.404;7.734;2022-08-03T03:37:27;3.72;;;2.90;;
23614;SDS011;11985;49.404;7.734;2022-08-03T03:39:31;3.88;;;3.47;;
23614;SDS011;11985;49.404;7.734;2022-08-03T03:41:34;3.58;;;3.20;;
23614;SDS011;11985;49.404;7.734;2022-08-03T03:43:37;4.07;;;3.35;;
23614;SDS011;11985;49.404;7.734;2022-08-03T03:45:39;5.25;;;3.65;;
23614;SDS011;11985;49.404;7.734;2022-08-03T03:47:42;4.97;;;3.50;;
23614;SDS011;11985;49.404;7.734;2022-08-03T03:51:47;4.10;;;3.42;;
23614;SDS011;11985;49.404;7.734;2022-08-03T03:53:53;4.85;;;3.40;;
23614;SDS011;11985;49.404;7.734;2022-08-03T03:55:58;4.40;;;3.45;;
23614;SDS011;11985;49.404;7.734;2022-08-03T03:58:02;6.63;;;3.53;;
23614;SDS011;11985;49.404;7.734;2022-08-03T04:00:04;3.67;;;3.13;;
23614;SDS011;11985;49.404;7.734;2022-08-03T04:02:09;4.30;;;3.20;;
23614;SDS011;11985;49.404;7.734;2022-08-03T04:04:12;3.80;;;3.35;;
23614;SDS011;11985;49.404;7.734;2022-08-03T04:06:31;5.65;;;3.80;;
23614;SDS011;11985;49.404;7.734;2022-08-03T04:08:50;3.85;;;3.45;;
23614;SDS011;11985;49.404;7.734;2022-08-03T04:11:12;5.55;;;3.78;;
23614;SDS011;11985;49.404;7.734;2022-08-03T04:13:18;3.60;;;3.17;;
23614;SDS011;11985;49.404;7.734;2022-08-03T04:15:22;4.55;;;2.80;;
23614;SDS011;11985;49.404;7.734;2022-08-03T04:17:27;4.25;;;3.28;;
23614;SDS011;11985;49.404;7.734;2022-08-03T04:19:31;4.20;;;3.45;;
23614;SDS011;11985;49.404;7.734;2022-08-03T04:21:39;3.67;;;3.20;;
23614;SDS011;11985;49.404;7.734;2022-08-03T04:23:58;5.88;;;3.95;;
23614;SDS011;11985;49.404;7.734;2022-08-03T04:26:03;6.85;;;5.90;;
23614;SDS011;11985;49.404;7.734;2022-08-03T04:28:08;4.80;;;4.30;;
23614;SDS011;11985;49.404;7.734;2022-08-03T04:30:13;4.22;;;3.83;;
23614;SDS011;11985;49.404;7.734;2022-08-03T04:32:18;5.13;;;3.72;;
23614;SDS011;11985;49.404;7.734;2022-08-03T04:34:22;4.03;;;3.63;;
23614;SDS011;11985;49.404;7.734;2022-08-03T04:36:25;6.45;;;3.60;;
23614;SDS011;11985;49.404;7.734;2022-08-03T04:38:27;5.63;;;3.45;;
23614;SDS011;11985;49.404;7.734;2022-08-03T04:40:32;3.97;;;3.58;;
23614;SDS011;11985;49.404;7.734;2022-08-03T04:42:37;4.00;;;3.45;;
23614;SDS011;11985;49.404;7.734;2022-08-03T04:44:41;3.50;;;3.13;;
23614;SDS011;11985;49.404;7.734;2022-08-03T04:46:52;4.45;;;3.38;;
23614;SDS011;11985;49.404;7.734;2022-08-03T04:48:57;4.65;;;3.20;;
23614;SDS011;11985;49.404;7.734;2022-08-03T04:51:00;4.10;;;3.63;;
23614;SDS011;11985;49.404;7.734;2022-08-03T04:53:04;4.68;;;3.47;;
23614;SDS011;11985;49.404;7.734;2022-08-03T04:55:08;3.85;;;3.55;;
23614;SDS011;11985;49.404;7.734;2022-08-03T04:57:11;3.80;;;3.40;;
23614;SDS011;11985;49.404;7.734;2022-08-03T04:59:13;6.72;;;3.67;;
23614;SDS011;11985;49.404;7.734;2022-08-03T05:01:16;4.13;;;3.30;;
23614;SDS011;11985;49.404;7.734;2022-08-03T05:03:20;6.93;;;3.53;;
23614;SDS011;11985;49.404;7.734;2022-08-03T05:05:22;4.50;;;3.42;;
23614;SDS011;11985;49.404;7.734;2022-08-03T05:07:25;5.93;;;3.28;;
23614;SDS011;11985;49.404;7.734;2022-08-03T05:09:29;7.13;;;3.78;;
23614;SDS011;11985;49.404;7.734;2022-08-03T05:11:31;4.50;;;3.65;;
23614;SDS011;11985;49.404;7.734;2022-08-03T05:13:33;3.83;;;3.20;;
23614;SDS011;11985;49.404;7.734;2022-08-03T05:15:35;7.05;;;5.35;;
23614;SDS011;11985;49.404;7.734;2022-08-03T05:17:37;9.98;;;7.47;;
23614;SDS011;11985;49.404;7.734;2022-08-03T05:19:40;11.02;;;7.40;;
23614;SDS011;11985;49.404;7.734;2022-08-03T05:21:44;5.72;;;4.68;;
23614;SDS011;11985;49.404;7.734;2022-08-03T05:23:48;7.65;;;4.00;;
23614;SDS011;11985;49.404;7.734;2022-08-03T05:25:51;3.95;;;3.40;;
23614;SDS011;11985;49.404;7.734;2022-08-03T05:27:52;4.22;;;3.47;;
23614;SDS011;11985;49.404;7.734;2022-08-03T05:31:55;4.20;;;3.00;;
23614;SDS011;11985;49.404;7.734;2022-08-03T05:36:00;4.05;;;3.40;;
23614;SDS011;11985;49.404;7.734;2022-08-03T05:38:03;4.90;;;2.90;;
23614;SDS011;11985;49.404;7.734;2022-08-03T05:40:06;3.30;;;3.00;;
23614;SDS011;11985;49.404;7.734;2022-08-03T05:42:08;3.40;;;3.10;;
23614;SDS011;11985;49.404;7.734;2022-08-03T05:44:10;4.97;;;3.35;;
23614;SDS011;11985;49.404;7.734;2022-08-03T05:46:13;3.50;;;3.20;;
23614;SDS011;11985;49.404;7.734;2022-08-03T05:48:15;3.10;;;2.58;;
23614;SDS011;11985;49.404;7.734;2022-08-03T05:50:19;3.97;;;2.70;;
23614;SDS011;11985;49.404;7.734;2022-08-03T05:52:22;6.22;;;4.65;;
23614;SDS011;11985;49.404;7.734;2022-08-03T05:54:24;17.90;;;11.75;;
23614;SDS011;11985;49.404;7.734;2022-08-03T05:56:26;5.45;;;4.50;;
23614;SDS011;11985;49.404;7.734;2022-08-03T05:58:28;6.03;;;4.15;;
23614;SDS011;11985;49.404;7.734;2022-08-03T06:02:31;3.65;;;3.00;;
23614;SDS011;11985;49.404;7.734;2022-08-03T06:04:33;6.70;;;2.90;;
23614;SDS011;11985;49.404;7.734;2022-08-03T06:08:38;4.38;;;2.60;;
23614;SDS011;11985;49.404;7.734;2022-08-03T06:10:41;3.88;;;2.25;;
23614;SDS011;11985;49.404;7.734;2022-08-03T06:14:46;5.20;;;2.58;;
23614;SDS011;11985;49.404;7.734;2022-08-03T06:16:48;4.28;;;2.75;;
23614;SDS011;11985;49.404;7.734;2022-08-03T06:18:50;3.65;;;2.67;;
23614;SDS011;11985;49.404;7.734;2022-08-03T06:20:55;2.63;;;2.30;;
23614;SDS011;11985;49.404;7.734;2022-08-03T06:22:57;3.42;;;2.42;;
23614;SDS011;11985;49.404;7.734;2022-08-03T06:25:03;2.92;;;2.42;;
23614;SDS011;11985;49.404;7.734;2022-08-03T06:27:06;3.65;;;2.50;;
23614;SDS011;11985;49.404;7.734;2022-08-03T06:29:08;4.03;;;2.90;;
23614;SDS011;11985;49.404;7.734;2022-08-03T06:31:12;5.68;;;2.60;;
23614;SDS011;11985;49.404;7.734;2022-08-03T06:35:18;4.78;;;2.40;;
23614;SDS011;11985;49.404;7.734;2022-08-03T06:37:20;4.30;;;2.40;;
23614;SDS011;11985;49.404;7.734;2022-08-03T06:39:22;4.07;;;2.60;;
23614;SDS011;11985;49.404;7.734;2022-08-03T06:41:30;7.85;;;2.80;;
23614;SDS011;11985;49.404;7.734;2022-08-03T06:43:31;4.45;;;2.78;;
23614;SDS011;11985;49.404;7.734;2022-08-03T06:45:36;5.10;;;2.63;;
23614;SDS011;11985;49.404;7.734;2022-08-03T06:47:39;5.40;;;2.50;;
23614;SDS011;11985;49.404;7.734;2022-08-03T06:49:42;7.10;;;2.60;;
23614;SDS011;11985;49.404;7.734;2022-08-03T06:53:45;2.83;;;2.50;;
23614;SDS011;11985;49.404;7.734;2022-08-03T06:55:47;2.50;;;2.22;;
23614;SDS011;11985;49.404;7.734;2022-08-03T06:59:52;2.47;;;2.28;;
23614;SDS011;11985;49.404;7.734;2022-08-03T07:01:55;5.00;;;2.40;;
23614;SDS011;11985;49.404;7.734;2022-08-03T07:05:59;2.67;;;2.40;;
23614;SDS011;11985;49.404;7.734;2022-08-03T07:08:01;7.75;;;2.50;;
23614;SDS011;11985;49.404;7.734;2022-08-03T07:10:03;4.07;;;1.88;;
23614;SDS011;11985;49.404;7.734;2022-08-03T07:12:06;4.75;;;2.20;;
23614;SDS011;11985;49.404;7.734;2022-08-03T07:14:09;3.58;;;2.50;;
23614;SDS011;11985;49.404;7.734;2022-08-03T07:16:11;4.20;;;2.38;;
23614;SDS011;11985;49.404;7.734;2022-08-03T07:18:12;3.17;;;2.35;;
23614;SDS011;11985;49.404;7.734;2022-08-03T07:20:14;2.60;;;2.40;;
23614;SDS011;11985;49.404;7.734;2022-08-03T07:22:17;4.03;;;2.58;;
23614;SDS011;11985;49.404;7.734;2022-08-03T07:24:18;2.97;;;2.63;;
23614;SDS011;11985;49.404;7.734;2022-08-03T07:26:20;3.40;;;2.72;;
23614;SDS011;11985;49.404;7.734;2022-08-03T07:28:22;4.93;;;2.80;;
23614;SDS011;11985;49.404;7.734;2022-08-03T07:30:25;5.32;;;2.50;;
23614;SDS011;11985;49.404;7.734;2022-08-03T07:32:27;2.90;;;2.60;;
23614;SDS011;11985;49.404;7.734;2022-08-03T07:34:30;2.65;;;2.42;;
23614;SDS011;11985;49.404;7.734;2022-08-03T07:36:32;3.55;;;2.47;;
23614;SDS011;11985;49.404;7.734;2022-08-03T07:38:33;4.72;;;2.40;;
23614;SDS011;11985;49.404;7.734;2022-08-03T07:40:35;5.00;;;2.40;;
23614;SDS011;11985;49.404;7.734;2022-08-03T07:42:37;2.63;;;2.13;;
23614;SDS011;11985;49.404;7.734;2022-08-03T07:44:39;3.28;;;2.00;;
23614;SDS011;11985;49.404;7.734;2022-08-03T07:46:42;3.00;;;2.45;;
23614;SDS011;11985;49.404;7.734;2022-08-03T07:48:45;3.60;;;2.30;;
23614;SDS011;11985;49.404;7.734;2022-08-03T07:50:47;3.65;;;2.25;;
23614;SDS011;11985;49.404;7.734;2022-08-03T07:52:49;4.40;;;2.40;;
23614;SDS011;11985;49.404;7.734;2022-08-03T07:54:52;5.55;;;2.47;;
23614;SDS011;11985;49.404;7.734;2022-08-03T07:56:54;3.30;;;2.10;;
23614;SDS011;11985;49.404;7.734;2022-08-03T07:58:56;5.55;;;2.20;;
23614;SDS011;11985;49.404;7.734;2022-08-03T08:00:58;4.10;;;2.20;;
23614;SDS011;11985;49.404;7.734;2022-08-03T08:03:01;5.32;;;2.15;;
23614;SDS011;11985;49.404;7.734;2022-08-03T08:05:04;5.03;;;2.55;;
23614;SDS011;11985;49.404;7.734;2022-08-03T08:07:06;5.32;;;2.17;;
23614;SDS011;11985;49.404;7.734;2022-08-03T08:09:08;5.30;;;1.88;;
23614;SDS011;11985;49.404;7.734;2022-08-03T08:11:10;3.75;;;2.28;;
23614;SDS011;11985;49.404;7.734;2022-08-03T08:13:12;3.85;;;2.40;;
23614;SDS011;11985;49.404;7.734;2022-08-03T08:15:13;5.78;;;2.22;;
23614;SDS011;11985;49.404;7.734;2022-08-03T08:17:15;4.40;;;2.20;;
23614;SDS011;11985;49.404;7.734;2022-08-03T08:19:19;6.13;;;2.38;;
23614;SDS011;11985;49.404;7.734;2022-08-03T08:21:21;4.90;;;1.98;;
23614;SDS011;11985;49.404;7.734;2022-08-03T08:23:23;2.38;;;2.00;;
23614;SDS011;11985;49.404;7.734;2022-08-03T08:25:24;3.78;;;2.00;;
23614;SDS011;11985;49.404;7.734;2022-08-03T08:27:26;3.63;;;2.30;;
23614;SDS011;11985;49.404;7.734;2022-08-03T08:29:28;4.00;;;1.85;;
23614;SDS011;11985;49.404;7.734;2022-08-03T08:31:30;2.63;;;1.75;;
23614;SDS011;11985;49.404;7.734;2022-08-03T08:33:31;2.15;;;1.88;;
23614;SDS011;11985;49.404;7.734;2022-08-03T08:35:35;3.55;;;1.90;;
23614;SDS011;11985;49.404;7.734;2022-08-03T08:37:37;2.85;;;1.83;;
23614;SDS011;11985;49.404;7.734;2022-08-03T08:39:40;2.63;;;2.00;;
23614;SDS011;11985;49.404;7.734;2022-08-03T08:41:41;4.45;;;1.70;;
23614;SDS011;11985;49.404;7.734;2022-08-03T08:43:43;4.00;;;1.70;;
23614;SDS011;11985;49.404;7.734;2022-08-03T08:45:45;2.97;;;1.92;;
23614;SDS011;11985;49.404;7.734;2022-08-03T08:47:49;1.88;;;1.52;;
23614;SDS011;11985;49.404;7.734;2022-08-03T08:49:51;3.13;;;1.60;;
23614;SDS011;11985;49.404;7.734;2022-08-03T08:51:57;1.83;;;1.60;;
23614;SDS011;11985;49.404;7.734;2022-08-03T08:54:01;1.70;;;1.60;;
23614;SDS011;11985;49.404;7.734;2022-08-03T08:56:07;2.40;;;1.55;;
23614;SDS011;11985;49.404;7.734;2022-08-03T08:58:15;3.42;;;1.33;;
23614;SDS011;11985;49.404;7.734;2022-08-03T09:00:19;2.38;;;1.67;;
23614;SDS011;11985;49.404;7.734;2022-08-03T09:02:21;2.22;;;1.50;;
23614;SDS011;11985;49.404;7.734;2022-08-03T09:04:23;5.78;;;1.73;;
23614;SDS011;11985;49.404;7.734;2022-08-03T09:06:25;1.70;;;1.60;;
23614;SDS011;11985;49.404;7.734;2022-08-03T09:08:28;1.77;;;1.67;;
23614;SDS011;11985;49.404;7.734;2022-08-03T09:10:31;1.77;;;1.50;;
23614;SDS011;11985;49.404;7.734;2022-08-03T09:12:36;1.63;;;1.42;;
23614;SDS011;11985;49.404;7.734;2022-08-03T09:14:39;4.90;;;1.50;;
23614;SDS011;11985;49.404;7.734;2022-08-03T09:16:54;2.10;;;1.88;;
23614;SDS011;11985;49.404;7.734;2022-08-03T09:19:02;1.90;;;1.52;;
23614;SDS011;11985;49.404;7.734;2022-08-03T09:21:13;2.47;;;2.00;;
23614;SDS011;11985;49.404;7.734;2022-08-03T09:23:16;3.17;;;1.42;;
23614;SDS011;11985;49.404;7.734;2022-08-03T09:25:24;1.98;;;1.58;;
23614;SDS011;11985;49.404;7.734;2022-08-03T09:27:40;3.05;;;1.63;;
23614;SDS011;11985;49.404;7.734;2022-08-03T09:29:42;1.45;;;1.35;;
23614;SDS011;11985;49.404;7.734;2022-08-03T09:31:47;1.95;;;1.50;;
23614;SDS011;11985;49.404;7.734;2022-08-03T09:33:49;2.70;;;1.70;;
23614;SDS011;11985;49.404;7.734;2022-08-03T09:35:51;6.38;;;1.60;;
23614;SDS011;11985;49.404;7.734;2022-08-03T09:38:08;2.33;;;1.83;;
23614;SDS011;11985;49.404;7.734;2022-08-03T09:40:13;2.78;;;1.77;;
23614;SDS011;11985;49.404;7.734;2022-08-03T09:42:36;2.83;;;1.83;;
23614;SDS011;11985;49.404;7.734;2022-08-03T09:44:56;2.40;;;1.55;;
23614;SDS011;11985;49.404;7.734;2022-08-03T09:46:58;1.73;;;1.50;;
23614;SDS011;11985;49.404;7.734;2022-08-03T09:49:09;2.58;;;1.88;;
23614;SDS011;11985;49.404;7.734;2022-08-03T09:51:11;5.25;;;1.63;;
23614;SDS011;11985;49.404;7.734;2022-08-03T09:53:14;5.30;;;1.90;;
23614;SDS011;11985;49.404;7.734;2022-08-03T09:55:17;5.68;;;2.08;;
23614;SDS011;11985;49.404;7.734;2022-08-03T09:57:25;2.47;;;1.70;;
23614;SDS011;11985;49.404;7.734;2022-08-03T09:59:30;2.10;;;1.80;;
23614;SDS011;11985;49.404;7.734;2022-08-03T10:01:33;2.92;;;1.50;;
23614;SDS011;11985;49.404;7.734;2022-08-03T10:03:37;2.50;;;1.80;;
23614;SDS011;11985;49.404;7.734;2022-08-03T10:05:39;2.33;;;1.67;;
23614;SDS011;11985;49.404;7.734;2022-08-03T10:07:44;2.25;;;1.63;;
23614;SDS011;11985;49.404;7.734;2022-08-03T10:09:52;1.75;;;1.60;;
23614;SDS011;11985;49.404;7.734;2022-08-03T10:11:55;3.33;;;1.52;;
23614;SDS011;11985;49.404;7.734;2022-08-03T10:14:00;3.42;;;1.85;;
23614;SDS011;11985;49.404;7.734;2022-08-03T10:16:04;1.50;;;1.40;;
23614;SDS011;11985;49.404;7.734;2022-08-03T10:18:06;7.38;;;1.52;;
23614;SDS011;11985;49.404;7.734;2022-08-03T10:20:08;2.33;;;1.58;;
23614;SDS011;11985;49.404;7.734;2022-08-03T10:22:11;3.20;;;1.63;;
23614;SDS011;11985;49.404;7.734;2022-08-03T10:24:14;1.55;;;1.40;;
23614;SDS011;11985;49.404;7.734;2022-08-03T10:26:20;2.25;;;1.30;;
23614;SDS011;11985;49.404;7.734;2022-08-03T10:28:25;5.88;;;1.65;;
23614;SDS011;11985;49.404;7.734;2022-08-03T10:30:35;2.90;;;1.60;;
23614;SDS011;11985;49.404;7.734;2022-08-03T10:32:42;2.70;;;1.80;;
23614;SDS011;11985;49.404;7.734;2022-08-03T10:34:50;2.30;;;1.50;;
23614;SDS011;11985;49.404;7.734;2022-08-03T10:36:56;1.73;;;1.63;;
23614;SDS011;11985;49.404;7.734;2022-08-03T10:39:00;3.17;;;1.98;;
23614;SDS011;11985;49.404;7.734;2022-08-03T10:41:03;2.42;;;1.80;;
23614;SDS011;11985;49.404;7.734;2022-08-03T10:43:07;1.75;;;1.60;;
23614;SDS011;11985;49.404;7.734;2022-08-03T10:45:14;1.92;;;1.70;;
23614;SDS011;11985;49.404;7.734;2022-08-03T10:47:20;3.03;;;1.70;;
23614;SDS011;11985;49.404;7.734;2022-08-03T10:49:22;1.85;;;1.73;;
23614;SDS011;11985;49.404;7.734;2022-08-03T10:51:24;1.75;;;1.52;;
23614;SDS011;11985;49.404;7.734;2022-08-03T10:53:34;4.07;;;1.50;;
23614;SDS011;11985;49.404;7.734;2022-08-03T10:55:38;5.05;;;1.90;;
23614;SDS011;11985;49.404;7.734;2022-08-03T10:57:58;1.80;;;1.60;;
23614;SDS011;11985;49.404;7.734;2022-08-03T11:00:00;1.95;;;1.50;;
23614;SDS011;11985;49.404;7.734;2022-08-03T11:02:05;2.47;;;1.42;;
23614;SDS011;11985;49.404;7.734;2022-08-03T11:04:19;1.70;;;1.60;;
23614;SDS011;11985;49.404;7.734;2022-08-03T11:06:23;1.80;;;1.60;;
23614;SDS011;11985;49.404;7.734;2022-08-03T11:08:30;6.05;;;1.60;;
23614;SDS011;11985;49.404;7.734;2022-08-03T11:10:33;6.18;;;1.80;;
23614;SDS011;11985;49.404;7.734;2022-08-03T11:12:36;3.83;;;1.40;;
23614;SDS011;11985;49.404;7.734;2022-08-03T11:14:44;3.75;;;1.60;;
23614;SDS011;11985;49.404;7.734;2022-08-03T11:17:05;2.53;;;1.60;;
23614;SDS011;11985;49.404;7.734;2022-08-03T11:19:08;2.40;;;1.50;;
23614;SDS011;11985;49.404;7.734;2022-08-03T11:21:12;2.20;;;1.77;;
23614;SDS011;11985;49.404;7.734;2022-08-03T11:23:14;2.05;;;1.40;;
23614;SDS011;11985;49.404;7.734;2022-08-03T11:25:18;2.00;;;1.70;;
23614;SDS011;11985;49.404;7.734;2022-08-03T11:27:24;1.60;;;1.50;;
23614;SDS011;11985;49.404;7.734;2022-08-03T11:29:32;1.88;;;1.40;;
23614;SDS011;11985;49.404;7.734;2022-08-03T11:34:03;2.72;;;1.52;;
23614;SDS011;11985;49.404;7.734;2022-08-03T11:36:14;3.90;;;1.58;;
23614;SDS011;11985;49.404;7.734;2022-08-03T11:38:16;4.15;;;2.00;;
23614;SDS011;11985;49.404;7.734;2022-08-03T11:40:32;1.65;;;1.55;;
23614;SDS011;11985;49.404;7.734;2022-08-03T11:42:39;3.72;;;1.80;;
23614;SDS011;11985;49.404;7.734;2022-08-03T11:44:47;1.88;;;1.60;;
23614;SDS011;11985;49.404;7.734;2022-08-03T11:46:50;2.13;;;1.85;;
23614;SDS011;11985;49.404;7.734;2022-08-03T11:48:52;3.15;;;2.08;;
23614;SDS011;11985;49.404;7.734;2022-08-03T11:50:58;3.35;;;1.70;;
23614;SDS011;11985;49.404;7.734;2022-08-03T11:53:01;1.77;;;1.67;;
23614;SDS011;11985;49.404;7.734;2022-08-03T11:55:07;2.53;;;1.52;;
23614;SDS011;11985;49.404;7.734;2022-08-03T11:57:10;1.60;;;1.50;;
23614;SDS011;11985;49.404;7.734;2022-08-03T11:59:12;2.50;;;1.70;;
23614;SDS011;11985;49.404;7.734;2022-08-03T12:01:21;3.60;;;1.88;;
23614;SDS011;11985;49.404;7.734;2022-08-03T12:03:30;2.15;;;1.55;;
23614;SDS011;11985;49.404;7.734;2022-08-03T12:07:53;1.73;;;1.63;;
23614;SDS011;11985;49.404;7.734;2022-08-03T12:10:06;6.07;;;1.65;;
23614;SDS011;11985;49.404;7.734;2022-08-03T12:12:09;1.48;;;1.38;;
23614;SDS011;11985;49.404;7.734;2022-08-03T12:14:16;1.85;;;1.50;;
23614;SDS011;11985;49.404;7.734;2022-08-03T12:16:18;2.40;;;1.63;;
23614;SDS011;11985;49.404;7.734;2022-08-03T12:18:21;1.75;;;1.65;;
23614;SDS011;11985;49.404;7.734;2022-08-03T12:20:26;2.22;;;1.50;;
23614;SDS011;11985;49.404;7.734;2022-08-03T12:22:32;1.95;;;1.60;;
23614;SDS011;11985;49.404;7.734;2022-08-03T12:24:39;2.92;;;1.73;;
23614;SDS011;11985;49.404;7.734;2022-08-03T12:26:46;1.70;;;1.60;;
23614;SDS011;11985;49.404;7.734;2022-08-03T12:28:52;4.40;;;1.35;;
23614;SDS011;11985;49.404;7.734;2022-08-03T12:30:53;1.70;;;1.60;;
23614;SDS011;11985;49.404;7.734;2022-08-03T12:32:58;1.77;;;1.25;;
23614;SDS011;11985;49.404;7.734;2022-08-03T12:35:00;1.95;;;1.60;;
23614;SDS011;11985;49.404;7.734;2022-08-03T12:37:04;6.05;;;1.70;;
23614;SDS011;11985;49.404;7.734;2022-08-03T12:39:07;2.35;;;1.63;;
23614;SDS011;11985;49.404;7.734;2022-08-03T12:41:11;3.10;;;1.67;;
23614;SDS011;11985;49.404;7.734;2022-08-03T12:43:18;2.65;;;1.52;;
23614;SDS011;11985;49.404;7.734;2022-08-03T12:45:21;2.17;;;1.55;;
23614;SDS011;11985;49.404;7.734;2022-08-03T12:47:24;1.65;;;1.50;;
23614;SDS011;11985;49.404;7.734;2022-08-03T12:49:43;1.50;;;1.40;;
23614;SDS011;11985;49.404;7.734;2022-08-03T12:51:55;2.15;;;1.50;;
23614;SDS011;11985;49.404;7.734;2022-08-03T12:53:59;1.50;;;1.40;;
23614;SDS011;11985;49.404;7.734;2022-08-03T12:56:01;1.58;;;1.48;;
23614;SDS011;11985;49.404;7.734;2022-08-03T12:58:05;1.90;;;1.50;;
23614;SDS011;11985;49.404;7.734;2022-08-03T13:00:12;3.35;;;1.60;;
23614;SDS011;11985;49.404;7.734;2022-08-03T13:02:18;2.03;;;1.50;;
23614;SDS011;11985;49.404;7.734;2022-08-03T13:04:25;1.50;;;1.40;;
23614;SDS011;11985;49.404;7.734;2022-08-03T13:06:29;1.77;;;1.52;;